»·PEaware :: N653AW KFAT-KRNO

N653AW :: KFAT-KRNO

FLIGHT INFORMATION

Flight Status: Arrived
Operator: Privately registered:
United States
More flights under this callsign
Pilot: Sergei F. (8485)
Aircraft: AIRBUS A320
(A320)
More flights by this aircraft type
Origin: KFAT Fresno Yosemite Intl
United States
Destination: KRNO Reno/Tahoe Intl
United States
More flights between these airports :: More routes between these airports
Route: YOSE3 FRA MVA RYANN1
File this flight plan on PilotEdge
Remarks:
Altitude:
(Current/Filed)
25,000ft
Speed:
(Current/Filed)
400kts
Departed: 22-Aug-20 08:52 PM
Arrived: 22-Aug-20 09:57 PM
Distance/Time
Traveled:
164nm/1:05
Distance/Time
To Go:
Arrived

Flight Plot

Page will automatically refresh every two minutes.

Flight plan parsing failed; only flown route is shown


Map Options




Map Legend


Flown Route
Filed Route
Departure Airport
Arrival Airport
Navaid (VOR, NDB)
Fix

Horizontal Profiles

Position Reports

Time Latitude Longitude Heading Altitude Ground
Speed
22-Aug-20 20:00 36.771835 -119.719011 125 334ft 0kts
22-Aug-20 20:01 36.771835 -119.719011 125 334ft 0kts
22-Aug-20 20:02 36.771835 -119.719011 125 334ft 0kts
22-Aug-20 20:03 36.771835 -119.719011 125 334ft 0kts
22-Aug-20 20:04 36.771835 -119.719011 125 334ft 0kts
22-Aug-20 20:05 36.771835 -119.719011 125 334ft 0kts
22-Aug-20 20:06 36.771835 -119.719011 125 334ft 0kts
22-Aug-20 20:07 36.771835 -119.719011 125 334ft 0kts
22-Aug-20 20:08 36.771835 -119.719011 125 334ft 0kts
22-Aug-20 20:09 36.771835 -119.719011 125 334ft 0kts
22-Aug-20 20:10 36.771835 -119.719011 125 334ft 0kts
22-Aug-20 20:11 36.771835 -119.719011 125 334ft 0kts
22-Aug-20 20:12 36.771835 -119.719011 125 334ft 0kts
22-Aug-20 20:13 36.771835 -119.719011 125 334ft 0kts
22-Aug-20 20:14 36.771835 -119.719011 125 334ft 0kts
22-Aug-20 20:15 36.771835 -119.719011 125 334ft 0kts
22-Aug-20 20:16 36.771835 -119.719011 125 334ft 0kts
22-Aug-20 20:17 36.771835 -119.719011 125 334ft 0kts
22-Aug-20 20:18 36.771835 -119.719011 125 334ft 0kts
22-Aug-20 20:19 36.771835 -119.719011 125 334ft 0kts
22-Aug-20 20:20 36.771835 -119.719011 125 334ft 0kts
22-Aug-20 20:21 36.771835 -119.719011 125 334ft 0kts
22-Aug-20 20:22 36.771835 -119.719011 125 334ft 0kts
22-Aug-20 20:23 36.771835 -119.719011 125 334ft 0kts
22-Aug-20 20:24 36.771835 -119.719011 125 334ft 0kts
22-Aug-20 20:25 36.771835 -119.719011 125 334ft 0kts
22-Aug-20 20:26 36.771835 -119.719011 125 334ft 0kts
22-Aug-20 20:27 36.771835 -119.719011 125 334ft 0kts
22-Aug-20 20:28 36.771835 -119.719011 125 334ft 0kts
22-Aug-20 20:29 36.771835 -119.719011 125 334ft 0kts
22-Aug-20 20:30 36.771835 -119.719011 125 334ft 0kts
22-Aug-20 20:31 36.771835 -119.719011 125 334ft 0kts
22-Aug-20 20:32 36.771835 -119.719011 125 334ft 0kts
22-Aug-20 20:33 36.771835 -119.719011 125 334ft 0kts
22-Aug-20 20:34 36.771835 -119.719011 125 334ft 0kts
22-Aug-20 20:35 36.771835 -119.719011 125 334ft 0kts
22-Aug-20 20:36 36.771835 -119.719012 125 334ft 0kts
22-Aug-20 20:37 36.772070 -119.719419 125 334ft 2kts
22-Aug-20 20:38 36.772061 -119.719830 36 334ft 0kts
22-Aug-20 20:39 36.772398 -119.719527 35 334ft 0kts
22-Aug-20 20:40 36.772398 -119.719526 34 334ft 0kts
22-Aug-20 20:41 36.772398 -119.719526 35 334ft 0kts
22-Aug-20 20:42 36.772398 -119.719526 35 334ft 0kts
22-Aug-20 20:43 36.772398 -119.719526 35 334ft 0kts
22-Aug-20 20:44 36.772398 -119.719526 35 334ft 0kts
22-Aug-20 20:45 36.772421 -119.719506 35 334ft 0kts
22-Aug-20 20:46 36.773093 -119.718393 44 334ft 5kts
22-Aug-20 20:47 36.772638 -119.716680 125 334ft 6kts
22-Aug-20 20:48 36.771327 -119.714376 124 334ft 9kts
22-Aug-20 20:49 36.769888 -119.711851 124 334ft 5kts
22-Aug-20 20:50 36.770682 -119.710783 319 334ft 3kts
22-Aug-20 20:51 36.774463 -119.717381 305 334ft 122kts
22-Aug-20 20:52 36.799922 -119.762108 306 2677ft 177kts
22-Aug-20 20:53 36.835939 -119.825600 307 4653ft 264kts
22-Aug-20 20:54 36.903013 -119.825041 41 7784ft 288kts
22-Aug-20 20:55 36.963440 -119.756544 41 10755ft 310kts
22-Aug-20 20:56 37.029664 -119.681041 41 13205ft 340kts
22-Aug-20 20:57 37.100406 -119.600074 40 15634ft 360kts
22-Aug-20 20:58 37.176317 -119.520481 38 17796ft 378kts
22-Aug-20 20:59 37.257805 -119.435280 38 20049ft 389kts
22-Aug-20 21:00 37.340455 -119.348624 39 22256ft 396kts
22-Aug-20 21:01 37.426256 -119.258354 39 24020ft 411kts
22-Aug-20 21:02 37.515857 -119.163790 40 25328ft 432kts
22-Aug-20 21:03 37.612424 -119.061453 40 25343ft 477kts
22-Aug-20 21:04 37.716684 -118.950682 39 25346ft 497kts
22-Aug-20 21:05 37.822235 -118.838163 38 25347ft 497kts
22-Aug-20 21:06 37.927988 -118.724916 38 25343ft 496kts
22-Aug-20 21:07 38.033434 -118.611534 38 25338ft 496kts
22-Aug-20 21:08 38.138341 -118.498303 38 25341ft 496kts
22-Aug-20 21:09 38.242082 -118.385901 38 25346ft 496kts
22-Aug-20 21:10 38.345377 -118.273545 39 25308ft 496kts
22-Aug-20 21:11 38.461306 -118.183547 11 25188ft 491kts
22-Aug-20 21:12 38.593340 -118.197644 333 25089ft 475kts
22-Aug-20 21:13 38.688928 -118.306494 298 25076ft 461kts
22-Aug-20 21:14 38.752390 -118.448811 298 25031ft 457kts
22-Aug-20 21:15 38.815501 -118.590411 298 25016ft 457kts
22-Aug-20 21:16 38.877339 -118.729720 297 25044ft 458kts
22-Aug-20 21:17 38.939916 -118.871318 297 24541ft 444kts
22-Aug-20 21:18 39.009239 -118.998545 313 22166ft 435kts
22-Aug-20 21:19 39.095013 -119.105438 313 19840ft 422kts
22-Aug-20 21:20 39.177039 -119.208195 313 17597ft 408kts
22-Aug-20 21:21 39.242776 -119.290794 313 16153ft 402kts
22-Aug-20 21:41 39.377047 -119.766787 179 10091ft 239kts
22-Aug-20 21:41 39.328695 -119.740376 111 10435ft 246kts
22-Aug-20 21:43 39.377339 -119.678918 6 10084ft 257kts
22-Aug-20 21:43 39.436790 -119.670455 7 10077ft 256kts
22-Aug-20 21:44 39.508287 -119.659582 7 10068ft 280kts
22-Aug-20 21:46 39.606018 -119.641012 9 10084ft 307kts
22-Aug-20 21:46 39.675776 -119.626776 6 10095ft 300kts
22-Aug-20 21:47 39.752656 -119.629748 351 10117ft 266kts
22-Aug-20 21:48 39.813658 -119.661975 287 9356ft 238kts
22-Aug-20 21:49 39.812084 -119.744883 239 8745ft 234kts
22-Aug-20 21:50 39.754078 -119.767032 181 8672ft 221kts
22-Aug-20 21:51 39.692980 -119.766194 181 7902ft 220kts
22-Aug-20 21:52 39.632087 -119.765858 183 7013ft 218kts
22-Aug-20 21:53 39.575560 -119.766754 182 6042ft 187kts
22-Aug-20 21:54 39.530007 -119.766747 177 4800ft 154kts
22-Aug-20 21:55 39.495822 -119.766791 180 4424ft 49kts
22-Aug-20 21:56 39.489274 -119.767482 261 4424ft 8kts
22-Aug-20 21:57 39.489387 -119.770537 323 4424ft 8kts
22-Aug-20 21:58 39.492873 -119.770701 359 4424ft 15kts
22-Aug-20 21:59 39.497111 -119.770684 0 4424ft 15kts
22-Aug-20 22:00 39.501188 -119.770676 359 4424ft 14kts
22-Aug-20 22:01 39.505137 -119.770663 0 4424ft 13kts
22-Aug-20 22:02 39.505898 -119.772757 269 4424ft 5kts
22-Aug-20 22:03 39.505249 -119.773217 180 4424ft 0kts
22-Aug-20 22:04 39.505249 -119.773217 180 4424ft 0kts

Navigation Log

Ident Type
Flight plan parsing failed, navigation log unavailable